Time;durP1;ratioP1;P1;durP2;ratioP2;P2;SDS_P1;SDS_P2;PMS_P1;PMS_P2;Temp;Humidity;BMP_temperature;BMP_pressure;BME280_temperature;BME280_humidity;BME280_pressure;Samples;Min_cycle;Max_cycle;Signal;HPM_P1;HPM_P2
2022/11/26 00:00:28;;;;;;;1999.90;999.90;;;5.00;99.90;;;;;;5046293;28;20045;-66
2022/11/26 00:02:54;;;;;;;1999.90;999.90;;;4.90;99.90;;;;;;5047379;28;20060;-66
2022/11/26 00:05:21;;;;;;;1999.90;999.90;;;4.90;99.90;;;;;;5030301;28;20049;-66
2022/11/26 00:07:56;;;;;;;1999.90;999.90;;;5.00;99.90;;;;;;5045138;28;20055;-65
2022/11/26 00:10:25;;;;;;;1999.90;999.90;;;4.90;99.90;;;;;;5061182;28;20041;-65
2022/11/26 00:12:50;;;;;;;1999.90;999.90;;;4.90;99.90;;;;;;5046696;28;20097;-66
2022/11/26 00:15:22;;;;;;;1999.90;999.90;;;4.90;99.90;;;;;;5013389;28;20030;-66
2022/11/26 00:17:49;;;;;;;1999.90;999.90;;;4.80;99.90;;;;;;5046123;28;20120;-66
2022/11/26 00:20:15;;;;;;;1999.90;999.90;;;4.80;99.90;;;;;;5046410;28;20041;-65
2022/11/26 00:22:53;;;;;;;1999.90;999.90;;;4.90;99.90;;;;;;5044549;28;20033;-65
2022/11/26 00:25:25;;;;;;;1999.90;999.90;;;4.90;99.90;;;;;;5029250;28;20087;-65
2022/11/26 00:27:54;;;;;;;1999.90;999.90;;;4.90;99.90;;;;;;5046435;28;20045;-66
2022/11/26 00:30:24;;;;;;;1999.90;999.90;;;4.80;99.90;;;;;;5042498;28;20119;-66
2022/11/26 00:32:49;;;;;;;1999.90;999.90;;;4.80;99.90;;;;;;5046031;28;20401;-66
2022/11/26 00:35:15;;;;;;;1999.90;999.90;;;4.80;99.90;;;;;;5043921;28;20033;-66
2022/11/26 00:37:46;;;;;;;1999.90;999.90;;;4.80;99.90;;;;;;5044513;28;20075;-65
2022/11/26 00:40:23;;;;;;;1999.90;999.90;;;4.80;99.90;;;;;;5045066;28;20055;-66
2022/11/26 00:42:50;;;;;;;1999.90;999.90;;;4.70;99.90;;;;;;5046133;28;20088;-66
2022/11/26 00:45:24;;;;;;;1999.90;999.90;;;4.70;99.90;;;;;;5045075;28;20098;-66
2022/11/26 00:47:51;;;;;;;1999.90;999.90;;;4.60;99.90;;;;;;5043333;28;20132;-65
2022/11/26 00:50:19;;;;;;;1999.90;999.90;;;4.60;99.90;;;;;;5041219;28;20400;-66
2022/11/26 00:52:47;;;;;;;1999.90;999.90;;;4.50;99.90;;;;;;5045861;28;20033;-66
2022/11/26 00:55:36;;;;;;;1999.90;999.90;;;4.50;99.90;;;;;;5044386;28;20407;-66
2022/11/26 00:58:03;;;;;;;1999.90;999.90;;;4.40;99.90;;;;;;5045979;28;20053;-66
2022/11/26 01:00:31;;;;;;;1999.90;999.90;;;4.40;99.90;;;;;;5042032;28;20049;-65
2022/11/26 01:02:57;;;;;;;1999.90;999.90;;;4.50;99.90;;;;;;5059584;28;20072;-65
2022/11/26 01:05:25;;;;;;;1999.90;999.90;;;4.50;99.90;;;;;;5044127;28;20530;-66
2022/11/26 01:07:51;;;;;;;1999.90;999.90;;;4.50;99.90;;;;;;5045964;28;20555;-66
2022/11/26 01:10:22;;;;;;;1999.90;999.90;;;4.50;99.90;;;;;;5045742;28;20037;-66
2022/11/26 01:12:49;;;;;;;1999.90;999.90;;;4.50;99.90;;;;;;5027779;28;20124;-65
2022/11/26 01:15:17;;;;;;;1999.90;999.90;;;4.40;99.90;;;;;;5044538;28;20048;-65
2022/11/26 01:17:43;;;;;;;1999.90;999.90;;;4.40;99.90;;;;;;5044172;28;20048;-65
2022/11/26 01:20:27;;;;;;;1999.90;999.90;;;4.30;99.90;;;;;;5045530;28;20045;-65
2022/11/26 01:22:54;;;;;;;1999.90;999.90;;;4.30;99.90;;;;;;5040581;28;20044;-65
2022/11/26 01:25:21;;;;;;;1999.90;999.90;;;4.30;99.90;;;;;;5024959;28;20047;-65
2022/11/26 01:27:46;;;;;;;1999.90;999.90;;;4.30;99.90;;;;;;5047298;28;20724;-66
2022/11/26 01:30:24;;;;;;;1999.90;999.90;;;4.30;99.90;;;;;;5043635;28;20293;-66
2022/11/26 01:32:51;;;;;;;1999.90;999.90;;;4.30;99.90;;;;;;5041115;28;20037;-65
2022/11/26 01:35:18;;;;;;;1999.90;999.90;;;4.30;99.90;;;;;;5045442;28;20045;-65
2022/11/26 01:37:44;;;;;;;1999.90;999.90;;;4.30;99.90;;;;;;5043642;28;20075;-65
2022/11/26 01:40:28;;;;;;;1999.90;999.90;;;4.30;99.90;;;;;;5045235;28;20048;-66
2022/11/26 01:43:07;;;;;;;1999.90;999.90;;;4.20;99.90;;;;;;5059006;28;20056;-66
2022/11/26 01:45:33;;;;;;;1999.90;999.90;;;4.20;99.90;;;;;;5028002;28;20143;-66
2022/11/26 01:47:58;;;;;;;1999.90;999.90;;;4.20;99.90;;;;;;5028841;28;20132;-65
2022/11/26 01:50:30;;;;;;;1999.90;999.90;;;4.20;99.90;;;;;;5045002;28;20033;-66
2022/11/26 01:53:13;;;;;;;1999.90;999.90;;;4.20;99.90;;;;;;5044802;28;20522;-66
2022/11/26 01:55:50;;;;;;;1999.90;999.90;;;4.30;99.90;;;;;;5041129;28;20041;-65
2022/11/26 01:58:24;;;;;;;1999.90;999.90;;;4.30;99.90;;;;;;5058114;28;20074;-66
2022/11/26 02:00:50;;;;;;;1999.90;999.90;;;4.30;99.90;;;;;;5043324;28;20049;-66
2022/11/26 02:03:17;;;;;;;1999.90;999.90;;;4.30;99.90;;;;;;5043648;28;20123;-65
2022/11/26 02:05:53;;;;;;;1999.90;999.90;;;4.40;99.90;;;;;;5044329;28;20037;-65
2022/11/26 02:08:18;;;;;;;1999.90;999.90;;;4.40;99.90;;;;;;5041171;28;20375;-65
2022/11/26 02:10:44;;;;;;;1999.90;999.90;;;4.40;99.90;;;;;;5042508;28;20083;-66
2022/11/26 02:13:10;;;;;;;1999.90;999.90;;;4.40;99.90;;;;;;5045118;28;20119;-66
2022/11/26 02:15:58;;;;;;;1999.90;999.90;;;4.40;99.90;;;;;;5045837;28;20420;-65
2022/11/26 02:18:28;;;;;;;1999.90;999.90;;;4.50;99.90;;;;;;5040104;28;20087;-65
2022/11/26 02:21:26;;;;;;;1999.90;999.90;;;4.50;99.90;;;;;;5042460;28;20428;-65
2022/11/26 02:24:25;;;;;;;1999.90;999.90;;;4.40;99.90;;;;;;5042387;28;20049;-65
2022/11/26 02:27:26;;;;;;;1999.90;999.90;;;4.40;99.90;;;;;;5040055;28;20606;-65
2022/11/26 02:30:05;;;;;;;1999.90;999.90;;;4.30;99.90;;;;;;5045346;28;20401;-66
2022/11/26 02:32:53;;;;;;;1999.90;999.90;;;4.30;99.90;;;;;;5040469;28;20064;-65
2022/11/26 02:35:50;;;;;;;1999.90;999.90;;;4.30;99.90;;;;;;5042589;28;20044;-65
2022/11/26 02:38:23;;;;;;;1999.90;999.90;;;4.30;99.90;;;;;;5041550;28;20057;-65
2022/11/26 02:40:49;;;;;;;1999.90;999.90;;;4.40;99.90;;;;;;5042238;28;20045;-66
2022/11/26 02:43:16;;;;;;;1999.90;999.90;;;4.30;99.90;;;;;;5043200;28;20044;-66
2022/11/26 02:45:46;;;;;;;1999.90;999.90;;;4.30;99.90;;;;;;5045572;28;20084;-65
2022/11/26 02:48:26;;;;;;;1999.90;999.90;;;4.30;99.90;;;;;;5042657;28;20394;-65
2022/11/26 02:51:03;;;;;;;1999.90;999.90;;;4.30;99.90;;;;;;5040251;28;20041;-66
2022/11/26 02:53:32;;;;;;;1999.90;999.90;;;4.40;99.90;;;;;;5042577;28;20037;-66
2022/11/26 02:56:11;;;;;;;1999.90;999.90;;;4.40;99.90;;;;;;5041343;28;20041;-65
2022/11/26 02:58:37;;;;;;;1999.90;999.90;;;4.40;99.90;;;;;;5040964;28;20056;-66
2022/11/26 03:01:08;;;;;;;1999.90;999.90;;;4.40;99.90;;;;;;5042091;28;20088;-66
2022/11/26 03:03:42;;;;;;;1999.90;999.90;;;4.40;99.90;;;;;;5045253;28;20124;-66
2022/11/26 03:06:11;;;;;;;1999.90;999.90;;;4.40;99.90;;;;;;5043601;28;20064;-65
2022/11/26 03:08:37;;;;;;;1999.90;999.90;;;4.40;99.90;;;;;;5024388;28;20109;-65
2022/11/26 03:11:03;;;;;;;1999.90;999.90;;;4.40;99.90;;;;;;5041864;28;20584;-66
2022/11/26 03:13:29;;;;;;;1999.90;999.90;;;4.40;99.90;;;;;;5041745;28;20041;-65
2022/11/26 03:15:55;;;;;;;1999.90;999.90;;;4.40;99.90;;;;;;5043461;28;20396;-66
2022/11/26 03:18:21;;;;;;;1999.90;999.90;;;4.40;99.90;;;;;;5037710;28;20041;-65
2022/11/26 03:20:46;;;;;;;1999.90;999.90;;;4.40;99.90;;;;;;5047651;28;20045;-65
2022/11/26 03:23:12;;;;;;;1999.90;999.90;;;4.40;99.90;;;;;;5044228;28;20037;-66
2022/11/26 03:25:38;;;;;;;1999.90;999.90;;;4.40;99.90;;;;;;5048026;28;20037;-66
2022/11/26 03:28:04;;;;;;;1999.90;999.90;;;4.40;99.90;;;;;;5049426;28;20076;-66
2022/11/26 03:30:29;;;;;;;1999.90;999.90;;;4.40;99.90;;;;;;5044877;28;20069;-65
2022/11/26 03:32:55;;;;;;;1999.90;999.90;;;4.40;99.90;;;;;;5044940;28;20063;-65
2022/11/26 03:35:21;;;;;;;1999.90;999.90;;;4.50;99.90;;;;;;5047098;28;20029;-65
2022/11/26 03:37:46;;;;;;;1999.90;999.90;;;4.50;99.90;;;;;;5047363;28;20114;-65
2022/11/26 03:40:13;;;;;;;1999.90;999.90;;;4.50;99.90;;;;;;5045994;28;20052;-66
2022/11/26 03:42:38;;;;;;;1999.90;999.90;;;4.50;99.90;;;;;;5048767;28;20032;-66
2022/11/26 03:45:05;;;;;;;1999.90;999.90;;;4.50;99.90;;;;;;5045462;28;20041;-66
2022/11/26 03:47:30;;;;;;;1999.90;999.90;;;4.50;99.90;;;;;;5045372;28;20056;-66
2022/11/26 03:49:56;;;;;;;1999.90;999.90;;;4.40;99.90;;;;;;5046781;28;20059;-65
2022/11/26 03:52:21;;;;;;;1999.90;999.90;;;4.40;99.90;;;;;;5045782;28;20068;-66
2022/11/26 03:54:47;;;;;;;1999.90;999.90;;;4.40;99.90;;;;;;5044584;28;20095;-66
2022/11/26 03:57:12;;;;;;;1999.90;999.90;;;4.40;99.90;;;;;;5043870;28;20079;-66
2022/11/26 03:59:38;;;;;;;1999.90;999.90;;;4.40;99.90;;;;;;5046997;28;20048;-65
2022/11/26 04:02:05;;;;;;;1999.90;999.90;;;4.40;99.90;;;;;;5027976;28;20068;-65
2022/11/26 04:04:30;;;;;;;1999.90;999.90;;;4.40;99.90;;;;;;5047882;28;20051;-65
2022/11/26 04:06:56;;;;;;;1999.90;999.90;;;4.30;99.90;;;;;;5044280;28;20061;-66
2022/11/26 04:09:22;;;;;;;1999.90;999.90;;;4.30;99.90;;;;;;5046927;28;20041;-66
2022/11/26 04:11:47;;;;;;;1999.90;999.90;;;4.30;99.90;;;;;;5045569;28;20492;-65
2022/11/26 04:14:13;;;;;;;1999.90;999.90;;;4.30;99.90;;;;;;5028006;28;20469;-66
2022/11/26 04:16:38;;;;;;;1999.90;999.90;;;4.30;99.90;;;;;;5044775;28;20041;-65
2022/11/26 04:19:04;;;;;;;1999.90;999.90;;;4.30;99.90;;;;;;5047556;28;20079;-66
2022/11/26 04:21:30;;;;;;;1999.90;999.90;;;4.30;99.90;;;;;;5045464;28;20563;-65
2022/11/26 04:23:55;;;;;;;1999.90;999.90;;;4.30;99.90;;;;;;5044319;28;20048;-66
2022/11/26 04:26:21;;;;;;;1999.90;999.90;;;4.30;99.90;;;;;;5044222;28;20040;-65
2022/11/26 04:28:46;;;;;;;1999.90;999.90;;;4.30;99.90;;;;;;5048806;28;20056;-66
2022/11/26 04:31:12;;;;;;;1999.90;999.90;;;4.30;99.90;;;;;;5044598;28;20037;-66
2022/11/26 04:33:37;;;;;;;1999.90;999.90;;;4.30;99.90;;;;;;5042576;28;20485;-66
2022/11/26 04:36:03;;;;;;;1999.90;999.90;;;4.30;99.90;;;;;;5045530;28;20041;-65
2022/11/26 04:38:29;;;;;;;1999.90;999.90;;;4.30;99.90;;;;;;5047460;28;20083;-66
2022/11/26 04:40:54;;;;;;;1999.90;999.90;;;4.40;99.90;;;;;;5046570;28;20615;-66
2022/11/26 04:43:20;;;;;;;1999.90;999.90;;;4.40;99.90;;;;;;5041468;28;21086;-66
2022/11/26 04:45:46;;;;;;;1999.90;999.90;;;4.40;99.90;;;;;;5045198;28;20089;-66
2022/11/26 04:48:11;;;;;;;1999.90;999.90;;;4.50;99.90;;;;;;5038635;28;20051;-65
2022/11/26 04:50:37;;;;;;;1999.90;999.90;;;4.50;99.90;;;;;;5044405;28;20040;-65
2022/11/26 04:53:03;;;;;;;1999.90;999.90;;;4.40;99.90;;;;;;5059944;28;20120;-65
2022/11/26 04:55:28;;;;;;;1999.90;999.90;;;4.40;99.90;;;;;;5045034;28;20156;-65
2022/11/26 04:57:54;;;;;;;1999.90;999.90;;;4.30;99.90;;;;;;5043373;28;20044;-66
2022/11/26 05:00:19;;;;;;;1999.90;999.90;;;4.30;99.90;;;;;;5027516;28;20766;-66
2022/11/26 05:02:45;;;;;;;1999.90;999.90;;;4.30;99.90;;;;;;5045840;28;20102;-66
2022/11/26 05:05:11;;;;;;;1999.90;999.90;;;4.30;99.90;;;;;;5043885;28;20825;-66
2022/11/26 05:07:37;;;;;;;1999.90;999.90;;;4.30;99.90;;;;;;5043125;28;20147;-66
2022/11/26 05:10:04;;;;;;;1999.90;999.90;;;4.30;99.90;;;;;;5046624;28;20127;-66
2022/11/26 05:12:29;;;;;;;1999.90;999.90;;;4.30;99.90;;;;;;5026892;28;20048;-66
2022/11/26 05:14:55;;;;;;;1999.90;999.90;;;4.30;99.90;;;;;;5024971;28;20043;-66
2022/11/26 05:17:20;;;;;;;1999.90;999.90;;;4.30;99.90;;;;;;5045321;28;20079;-66
2022/11/26 05:19:46;;;;;;;1999.90;999.90;;;4.40;99.90;;;;;;5057868;28;20043;-66
2022/11/26 05:22:11;;;;;;;1999.90;999.90;;;4.40;99.90;;;;;;5044797;28;20115;-66
2022/11/26 05:24:37;;;;;;;1999.90;999.90;;;4.40;99.90;;;;;;5042047;28;20036;-66
2022/11/26 05:27:03;;;;;;;1999.90;999.90;;;4.40;99.90;;;;;;5045796;28;20045;-66
2022/11/26 05:29:28;;;;;;;1999.90;999.90;;;4.40;99.90;;;;;;5044257;28;20036;-66
2022/11/26 05:31:54;;;;;;;1999.90;999.90;;;4.40;99.90;;;;;;5044020;28;20036;-65
2022/11/26 05:34:19;;;;;;;1999.90;999.90;;;4.50;99.90;;;;;;5044800;28;20103;-66
2022/11/26 05:36:45;;;;;;;1999.90;999.90;;;4.50;99.90;;;;;;5044538;28;20044;-66
2022/11/26 05:39:11;;;;;;;1999.90;999.90;;;4.50;99.90;;;;;;5045309;28;20041;-66
2022/11/26 05:41:36;;;;;;;1999.90;999.90;;;4.60;99.90;;;;;;5044834;28;20048;-66
2022/11/26 05:44:02;;;;;;;1999.90;999.90;;;4.50;99.90;;;;;;5047512;28;20051;-66
2022/11/26 05:46:28;;;;;;;1999.90;999.90;;;4.50;99.90;;;;;;5044429;28;20041;-66
2022/11/26 05:48:54;;;;;;;1999.90;999.90;;;4.50;99.90;;;;;;5059626;28;20053;-66
2022/11/26 05:51:19;;;;;;;1999.90;999.90;;;4.50;99.90;;;;;;5026350;28;20037;-66
2022/11/26 05:53:45;;;;;;;1999.90;999.90;;;4.40;99.90;;;;;;5041820;28;20041;-66
2022/11/26 05:56:10;;;;;;;1999.90;999.90;;;4.40;99.90;;;;;;5043641;28;20124;-66
2022/11/26 05:58:36;;;;;;;1999.90;999.90;;;4.50;99.90;;;;;;5027145;28;20479;-66
2022/11/26 06:01:07;;;;;;;1999.90;999.90;;;4.50;99.90;;;;;;5042580;28;20171;-66
2022/11/26 06:03:32;;;;;;;1999.90;999.90;;;4.50;99.90;;;;;;5044636;28;20049;-66
2022/11/26 06:05:58;;;;;;;1999.90;999.90;;;4.50;99.90;;;;;;5043047;28;20044;-66
2022/11/26 06:08:23;;;;;;;1999.90;999.90;;;4.50;99.90;;;;;;5041466;28;20037;-65
2022/11/26 06:10:49;;;;;;;1999.90;999.90;;;4.50;99.90;;;;;;5041948;28;20077;-66
2022/11/26 06:13:14;;;;;;;1999.90;999.90;;;4.50;99.90;;;;;;5044856;28;20037;-65
2022/11/26 06:15:40;;;;;;;1999.90;999.90;;;4.50;99.90;;;;;;5045082;28;20051;-66
2022/11/26 06:18:05;;;;;;;1999.90;999.90;;;4.50;99.90;;;;;;5028495;28;20099;-66
2022/11/26 06:20:31;;;;;;;1999.90;999.90;;;4.50;99.90;;;;;;5042629;28;20067;-66
2022/11/26 06:22:56;;;;;;;1999.90;999.90;;;4.40;99.90;;;;;;5041970;28;20044;-66
2022/11/26 06:25:22;;;;;;;1999.90;999.90;;;4.40;99.90;;;;;;5042687;28;20036;-65
2022/11/26 06:27:48;;;;;;;1999.90;999.90;;;4.40;99.90;;;;;;5026202;28;20037;-66
2022/11/26 06:30:13;;;;;;;1999.90;999.90;;;4.40;99.90;;;;;;5025546;28;20040;-66
2022/11/26 06:32:39;;;;;;;1999.90;999.90;;;4.30;99.90;;;;;;5045161;28;20083;-65
2022/11/26 06:35:04;;;;;;;1999.90;999.90;;;4.40;99.90;;;;;;5042017;28;20033;-66
2022/11/26 06:37:31;;;;;;;1999.90;999.90;;;4.30;99.90;;;;;;5043159;28;20044;-65
2022/11/26 06:39:57;;;;;;;1999.90;999.90;;;4.30;99.90;;;;;;5043440;28;20048;-65
2022/11/26 06:42:22;;;;;;;1999.90;999.90;;;4.30;99.90;;;;;;5045946;28;20041;-66
2022/11/26 06:44:48;;;;;;;1999.90;999.90;;;4.20;99.90;;;;;;5042385;28;20071;-66
2022/11/26 06:47:14;;;;;;;1999.90;999.90;;;4.10;99.90;;;;;;5044915;28;20369;-66
2022/11/26 06:49:40;;;;;;;1999.90;999.90;;;4.10;99.90;;;;;;5042287;28;20056;-66
2022/11/26 06:52:06;;;;;;;1999.90;999.90;;;4.00;99.90;;;;;;5044379;28;20060;-66
2022/11/26 06:54:32;;;;;;;1999.90;999.90;;;3.90;99.90;;;;;;5026985;28;20584;-66
2022/11/26 06:56:57;;;;;;;1999.90;999.90;;;3.90;99.90;;;;;;5026092;28;20045;-66
2022/11/26 06:59:23;;;;;;;1999.90;999.90;;;3.80;99.90;;;;;;5041963;28;20156;-66
2022/11/26 07:01:49;;;;;;;1999.90;999.90;;;3.80;99.90;;;;;;5043393;28;20029;-66
2022/11/26 07:04:14;;;;;;;1999.90;999.90;;;3.80;99.90;;;;;;5041917;28;20053;-66
2022/11/26 07:06:43;;;;;;;1999.90;999.90;;;3.80;99.90;;;;;;5042720;28;20041;-66
2022/11/26 07:09:09;;;;;;;1999.90;999.90;;;3.80;99.90;;;;;;5040606;28;20073;-66
2022/11/26 07:11:36;;;;;;;1999.90;999.90;;;3.90;99.90;;;;;;5042658;28;20072;-66
2022/11/26 07:14:01;;;;;;;1999.90;999.90;;;3.90;99.90;;;;;;5042887;28;20120;-66
2022/11/26 07:16:27;;;;;;;1999.90;999.90;;;3.90;99.90;;;;;;5042296;28;20111;-66
2022/11/26 07:18:55;;;;;;;1999.90;999.90;;;4.00;99.90;;;;;;5043946;28;20041;-66
2022/11/26 07:21:22;;;;;;;1999.90;999.90;;;4.00;99.90;;;;;;5041538;28;20045;-66
2022/11/26 07:23:48;;;;;;;1999.90;999.90;;;4.00;99.90;;;;;;5038845;28;22259;-66
2022/11/26 07:26:15;;;;;;;1999.90;999.90;;;4.10;99.90;;;;;;5042149;28;20439;-66
2022/11/26 07:28:41;;;;;;;1999.90;999.90;;;4.10;99.90;;;;;;5040550;28;20128;-66
2022/11/26 07:31:08;;;;;;;1999.90;999.90;;;4.20;99.90;;;;;;5042806;28;20032;-66
2022/11/26 07:33:34;;;;;;;1999.90;999.90;;;4.30;99.90;;;;;;5041367;28;20119;-66
2022/11/26 07:36:01;;;;;;;1999.90;999.90;;;4.40;99.90;;;;;;5041585;28;20096;-66
2022/11/26 07:38:28;;;;;;;1999.90;999.90;;;4.50;99.90;;;;;;5044857;28;20641;-66
2022/11/26 07:40:54;;;;;;;1999.90;999.90;;;4.60;99.90;;;;;;5041592;28;20040;-66
2022/11/26 07:43:19;;;;;;;1999.90;999.90;;;4.70;99.90;;;;;;5025264;28;20032;-66
2022/11/26 07:45:45;;;;;;;1999.90;999.90;;;4.80;99.90;;;;;;5041440;28;20811;-66
2022/11/26 07:48:11;;;;;;;1999.90;999.90;;;4.80;99.90;;;;;;5056456;28;20356;-66
2022/11/26 07:50:36;;;;;;;1999.90;999.90;;;4.80;99.90;;;;;;5044841;28;20033;-66
2022/11/26 07:53:02;;;;;;;1999.90;999.90;;;4.80;99.90;;;;;;5042151;28;20041;-66
2022/11/26 07:55:28;;;;;;;1999.90;999.90;;;4.90;99.90;;;;;;5023950;28;20064;-66
2022/11/26 07:57:53;;;;;;;1999.90;999.90;;;5.00;99.90;;;;;;5042321;28;20059;-66
2022/11/26 08:00:19;;;;;;;1999.90;999.90;;;5.00;99.90;;;;;;5046401;28;20040;-66
2022/11/26 08:02:45;;;;;;;1999.90;999.90;;;5.10;99.90;;;;;;5041208;28;20036;-66
2022/11/26 08:05:10;;;;;;;1999.90;999.90;;;5.20;99.90;;;;;;5040769;28;20040;-66
2022/11/26 08:07:36;;;;;;;1999.90;999.90;;;5.30;99.90;;;;;;5029447;28;20040;-66
2022/11/26 08:10:03;;;;;;;1999.90;999.90;;;5.50;99.90;;;;;;5045443;28;20140;-66
2022/11/26 08:12:28;;;;;;;1999.90;999.90;;;5.70;99.90;;;;;;5045525;28;20199;-66
2022/11/26 08:14:54;;;;;;;1999.90;999.90;;;5.80;99.90;;;;;;5043948;28;20123;-66
2022/11/26 08:17:19;;;;;;;1999.90;999.90;;;5.80;99.90;;;;;;5047070;28;20044;-66
2022/11/26 08:19:45;;;;;;;1999.90;999.90;;;5.80;99.90;;;;;;5047056;28;20087;-66
2022/11/26 08:22:10;;;;;;;1999.90;999.90;;;6.00;99.90;;;;;;5030481;28;20090;-66
2022/11/26 08:24:36;;;;;;;1999.90;999.90;;;6.00;99.90;;;;;;5045998;28;20088;-66
2022/11/26 08:27:01;;;;;;;1999.90;999.90;;;6.10;99.90;;;;;;5047008;28;20044;-66
2022/11/26 08:29:27;;;;;;;1999.90;999.90;;;6.10;99.90;;;;;;5044155;28;20471;-66
2022/11/26 08:31:53;;;;;;;1999.90;999.90;;;6.00;99.90;;;;;;5046230;28;20037;-66
2022/11/26 08:34:18;;;;;;;1999.90;999.90;;;6.10;99.90;;;;;;5046531;28;20416;-66
2022/11/26 08:36:44;;;;;;;1999.90;999.90;;;6.20;99.90;;;;;;5041772;28;20040;-66
2022/11/26 08:39:17;;;;;;;1999.90;999.90;;;6.20;99.90;;;;;;5029270;28;20401;-66
2022/11/26 08:41:43;;;;;;;1999.90;999.90;;;6.40;99.90;;;;;;5044751;28;20053;-66
2022/11/26 08:44:09;;;;;;;1999.90;999.90;;;6.50;99.90;;;;;;5044898;28;20701;-66
2022/11/26 08:46:36;;;;;;;1999.90;999.90;;;6.60;99.90;;;;;;5046158;28;20049;-66
2022/11/26 08:49:02;;;;;;;1999.90;999.90;;;6.60;99.90;;;;;;5042426;28;20041;-66
2022/11/26 08:51:28;;;;;;;1999.90;999.90;;;6.60;99.90;;;;;;5046517;28;20044;-67
2022/11/26 08:53:53;;;;;;;1999.90;999.90;;;6.60;99.90;;;;;;5046448;28;20041;-67
2022/11/26 08:56:19;;;;;;;1999.90;999.90;;;6.60;99.90;;;;;;5025972;28;20689;-66
2022/11/26 08:58:47;;;;;;;1999.90;999.90;;;6.60;99.90;;;;;;5044873;28;20126;-66
2022/11/26 09:01:15;;;;;;;1999.90;999.90;;;6.60;99.90;;;;;;5044617;28;20041;-66
2022/11/26 09:03:42;;;;;;;1999.90;999.90;;;6.60;99.90;;;;;;5029012;28;20120;-66
2022/11/26 09:06:08;;;;;;;1999.90;999.90;;;6.70;99.90;;;;;;5040565;28;20531;-66
2022/11/26 09:09:11;;;;;;;1999.90;999.90;;;6.70;99.90;;;;;;5042959;28;20037;-66
2022/11/26 09:11:25;;;;;;;1999.90;999.90;;;6.60;99.90;;;;;;5043124;28;20093;-66
2022/11/26 09:13:52;;;;;;;1999.90;999.90;;;6.70;99.90;;;;;;5027087;28;20047;-66
2022/11/26 09:16:18;;;;;;;1999.90;999.90;;;6.80;99.90;;;;;;5044364;28;20041;-66
2022/11/26 09:18:44;;;;;;;1999.90;999.90;;;6.80;99.90;;;;;;5043764;28;20065;-66
2022/11/26 09:21:09;;;;;;;1999.90;999.90;;;6.90;99.90;;;;;;5047222;28;20114;-66
2022/11/26 09:23:36;;;;;;;1999.90;999.90;;;6.90;99.90;;;;;;5047977;28;20040;-66
2022/11/26 09:26:01;;;;;;;1999.90;999.90;;;6.90;99.90;;;;;;5044239;28;20036;-66
2022/11/26 09:28:27;;;;;;;1999.90;999.90;;;7.00;99.90;;;;;;5044793;28;20477;-66
2022/11/26 09:30:57;;;;;;;1999.90;999.90;;;7.00;99.90;;;;;;5045177;28;20044;-66
2022/11/26 09:33:23;;;;;;;1999.90;999.90;;;7.10;99.90;;;;;;5057634;28;20040;-66
2022/11/26 09:35:48;;;;;;;1999.90;999.90;;;7.10;99.90;;;;;;5017670;28;20102;-66
2022/11/26 09:38:14;;;;;;;1999.90;999.90;;;7.20;99.90;;;;;;5041223;28;20037;-66
2022/11/26 09:40:54;;;;;;;1999.90;999.90;;;7.30;99.90;;;;;;5043463;28;20044;-67
2022/11/26 09:43:28;;;;;;;1999.90;999.90;;;7.40;99.90;;;;;;5023154;28;20127;-67
2022/11/26 09:45:58;;;;;;;1999.90;999.90;;;7.50;99.90;;;;;;5040960;28;20439;-67
2022/11/26 09:48:26;;;;;;;1999.90;999.90;;;7.50;99.90;;;;;;5026401;28;20068;-68
2022/11/26 09:51:08;;;;;;;1999.90;999.90;;;7.50;99.90;;;;;;5022533;28;20444;-66
2022/11/26 09:53:39;;;;;;;1999.90;999.90;;;7.50;99.90;;;;;;5022694;28;21201;-66
2022/11/26 09:56:11;;;;;;;1999.90;999.90;;;7.50;99.90;;;;;;5044502;28;20048;-67
2022/11/26 09:58:47;;;;;;;1999.90;999.90;;;7.50;99.90;;;;;;5044803;28;20045;-67
2022/11/26 10:01:18;;;;;;;1999.90;999.90;;;7.50;99.90;;;;;;5027179;28;20045;-66
2022/11/26 10:03:43;;;;;;;1999.90;999.90;;;7.60;99.90;;;;;;5053612;28;20047;-66
2022/11/26 10:07:06;;;;;;;1999.90;999.90;;;7.60;99.90;;;;;;5042062;28;20667;-67
2022/11/26 10:09:40;;;;;;;1999.90;999.90;;;7.70;99.90;;;;;;5019972;28;20041;-67
2022/11/26 10:12:36;;;;;;;1999.90;999.90;;;7.80;99.90;;;;;;5022572;28;20064;-67
2022/11/26 10:15:29;;;;;;;1999.90;999.90;;;7.90;99.90;;;;;;5021233;28;20514;-66
2022/11/26 10:18:23;;;;;;;1999.90;999.90;;;7.90;99.90;;;;;;5021530;28;20075;-67
2022/11/26 10:21:12;;;;;;;1999.90;999.90;;;7.90;99.90;;;;;;5024175;28;20515;-66
2022/11/26 10:23:57;;;;;;;1999.90;999.90;;;7.90;99.90;;;;;;5019270;28;20053;-66
2022/11/26 10:26:28;;;;;;;1999.90;999.90;;;7.90;99.90;;;;;;5019054;28;20041;-66
2022/11/26 10:29:24;;;;;;;1999.90;999.90;;;7.90;99.90;;;;;;5018866;28;20045;-66
2022/11/26 10:31:55;;;;;;;1999.90;999.90;;;7.90;99.90;;;;;;5019450;28;20508;-66
2022/11/26 10:34:36;;;;;;;1999.90;999.90;;;8.00;99.90;;;;;;5019696;28;20196;-67
2022/11/26 10:37:02;;;;;;;1999.90;999.90;;;8.00;99.90;;;;;;5024180;28;20136;-66
2022/11/26 10:39:28;;;;;;;1999.90;999.90;;;8.00;99.90;;;;;;5023680;28;20156;-67
2022/11/26 10:41:53;;;;;;;1999.90;999.90;;;8.10;99.90;;;;;;5042481;28;20040;-67
2022/11/26 10:44:30;;;;;;;1999.90;999.90;;;8.20;99.90;;;;;;5040787;28;20039;-66
2022/11/26 10:46:57;;;;;;;1999.90;999.90;;;8.20;99.90;;;;;;5035770;28;20068;-67
2022/11/26 10:49:26;;;;;;;1999.90;999.90;;;8.20;99.90;;;;;;5044193;28;20047;-67
2022/11/26 10:52:02;;;;;;;1999.90;999.90;;;8.20;99.90;;;;;;5043617;28;20124;-66
2022/11/26 10:54:36;;;;;;;1999.90;999.90;;;8.20;99.90;;;;;;5040720;28;20041;-66
2022/11/26 10:57:14;;;;;;;1999.90;999.90;;;8.30;99.90;;;;;;5026290;28;20049;-66
2022/11/26 10:59:52;;;;;;;1999.90;999.90;;;8.30;99.90;;;;;;5044312;28;20037;-66
2022/11/26 11:02:31;;;;;;;1999.90;999.90;;;8.30;99.90;;;;;;5036071;28;20519;-66
2022/11/26 11:05:01;;;;;;;1999.90;999.90;;;8.30;99.90;;;;;;5036375;28;20045;-66
2022/11/26 11:07:33;;;;;;;1999.90;999.90;;;8.30;99.90;;;;;;5057071;28;20103;-67
2022/11/26 11:10:15;;;;;;;1999.90;999.90;;;8.40;99.90;;;;;;5040988;28;20378;-66
2022/11/26 11:12:59;;;;;;;1999.90;999.90;;;8.40;99.90;;;;;;5041292;28;20370;-66
2022/11/26 11:15:28;;;;;;;1999.90;999.90;;;8.40;99.90;;;;;;5038396;28;20047;-66
2022/11/26 11:18:11;;;;;;;1999.90;999.90;;;8.40;99.90;;;;;;5036875;28;20637;-66
2022/11/26 11:20:40;;;;;;;1999.90;999.90;;;8.50;99.90;;;;;;5042104;28;20132;-66
2022/11/26 11:23:09;;;;;;;1999.90;999.90;;;8.50;99.90;;;;;;5027353;28;20041;-67
2022/11/26 11:25:38;;;;;;;1999.90;999.90;;;8.60;99.90;;;;;;5041335;28;20491;-66
2022/11/26 11:28:20;;;;;;;1999.90;999.90;;;8.60;99.90;;;;;;5056619;28;20045;-66
2022/11/26 11:30:55;;;;;;;1999.90;999.90;;;8.70;99.90;;;;;;5043601;28;20060;-67
2022/11/26 11:33:24;;;;;;;1999.90;999.90;;;8.70;99.90;;;;;;5042971;28;20044;-66
2022/11/26 11:36:13;;;;;;;1999.90;999.90;;;8.70;99.90;;;;;;5023149;28;20080;-66
2022/11/26 11:38:59;;;;;;;1999.90;999.90;;;8.80;99.90;;;;;;5042791;28;20124;-67
2022/11/26 11:41:43;;;;;;;1999.90;999.90;;;8.80;99.90;;;;;;5040651;28;20158;-67
2022/11/26 11:44:21;;;;;;;1999.90;999.90;;;8.80;99.90;;;;;;5042027;28;20041;-66
2022/11/26 11:47:05;;;;;;;1999.90;999.90;;;8.90;99.90;;;;;;5042681;28;20080;-66
2022/11/26 11:49:33;;;;;;;1999.90;999.90;;;8.90;99.90;;;;;;5045972;28;20048;-66
2022/11/26 11:52:34;;;;;;;1999.90;999.90;;;8.90;99.90;;;;;;5047069;28;20539;-66
2022/11/26 11:55:12;;;;;;;1999.90;999.90;;;9.00;99.90;;;;;;5036231;28;20157;-66
2022/11/26 11:57:58;;;;;;;1999.90;999.90;;;9.00;99.90;;;;;;5045025;28;20155;-67
2022/11/26 12:00:55;;;;;;;1999.90;999.90;;;9.00;99.90;;;;;;5045225;28;20132;-67
2022/11/26 12:03:39;;;;;;;1999.90;999.90;;;9.00;99.90;;;;;;5047744;28;20045;-66
2022/11/26 12:06:27;;;;;;;1999.90;999.90;;;9.00;99.90;;;;;;5037741;28;20503;-67
2022/11/26 12:09:07;;;;;;;1999.90;999.90;;;9.00;99.90;;;;;;5042696;28;20040;-66
2022/11/26 12:11:43;;;;;;;1999.90;999.90;;;9.00;99.90;;;;;;5044204;28;20041;-66
2022/11/26 12:14:17;;;;;;;1999.90;999.90;;;9.00;99.90;;;;;;5044981;28;20047;-66
2022/11/26 12:16:47;;;;;;;1999.90;999.90;;;9.00;99.90;;;;;;5042765;28;20045;-66
2022/11/26 12:19:18;;;;;;;1999.90;999.90;;;9.00;99.90;;;;;;5040644;28;20172;-66
2022/11/26 12:21:49;;;;;;;1999.90;999.90;;;9.00;99.90;;;;;;5040734;28;20071;-66